Flight Briefing for CPX991

Departure Arrival
Roswell International Air Center Airport (KROW)
Click to view FAA NOTAMS
Miami International Airport (KMIA)
Click to view FAA NOTAMS
Departure Time Arrival Time
N/A N/A
Aircraft Distance
B747-400BCF 1340nm
Departure METAR Arrival METAR
KROW 190751Z AUTO 18004KT 10SM CLR 04/M03 A3017 RMK AO2 SLP192 T00391028 KMIA 190753Z 36007KT 320V020 6SM BR BKN012 OVC025 21/19 A2999 RMK AO2 SLP155 T02110194
Suggested Route
INK J15 JCT J86 LEV Q102 BAGGS SSCOT5


View recent IFR Routes data
Notes
EMPTY | NON-REVENUE REPOSITIONING LEG

Charts and Procedures

Charts for KROW
No chart available
Charts for KMIA
No chart available

Windy.com Weather Map